Time;durP1;ratioP1;P1;durP2;ratioP2;P2;SDS_P1;SDS_P2;PMS_P1;PMS_P2;Temp;Humidity;BMP_temperature;BMP_pressure;BME280_temperature;BME280_humidity;BME280_pressure;Samples;Min_cycle;Max_cycle;Signal;HPM_P1;HPM_P2
2023/04/08 00:01:38;;;;;;;5.07;4.50;;;9.00;1.00;;;;;;5009534;28;20233;-73
2023/04/08 00:04:03;;;;;;;5.90;4.57;;;9.10;1.00;;;;;;5010614;28;20201;-73
2023/04/08 00:06:30;;;;;;;8.63;5.57;;;9.10;1.00;;;;;;5009948;28;20668;-73
2023/04/08 00:08:56;;;;;;;6.63;5.00;;;9.10;1.00;;;;;;5010031;28;20237;-73
2023/04/08 00:11:21;;;;;;;8.00;5.40;;;9.10;1.00;;;;;;5007859;28;20489;-73
2023/04/08 00:13:47;;;;;;;6.33;5.13;;;9.30;1.00;;;;;;5009544;28;20183;-74
2023/04/08 00:16:12;;;;;;;7.93;5.70;;;9.20;1.00;;;;;;5011063;28;20186;-74
2023/04/08 00:18:38;;;;;;;8.33;5.80;;;9.20;1.00;;;;;;5009705;28;20221;-73
2023/04/08 00:21:03;;;;;;;5.53;5.00;;;9.20;1.00;;;;;;5008556;28;20240;-73
2023/04/08 00:23:29;;;;;;;9.40;4.90;;;9.20;1.00;;;;;;5023763;28;20236;-73
2023/04/08 00:25:54;;;;;;;6.30;5.37;;;9.30;1.00;;;;;;5008395;28;20178;-74
2023/04/08 00:28:20;;;;;;;7.30;5.50;;;9.30;1.00;;;;;;5009263;28;20242;-72
2023/04/08 00:30:46;;;;;;;7.57;5.50;;;9.40;1.00;;;;;;5009368;28;20202;-73
2023/04/08 00:33:11;;;;;;;8.07;5.23;;;9.40;1.00;;;;;;5010621;28;20189;-73
2023/04/08 00:35:37;;;;;;;7.07;5.13;;;9.40;1.00;;;;;;5007985;28;20740;-74
2023/04/08 00:38:06;;;;;;;7.60;5.70;;;9.40;1.00;;;;;;5010321;28;20225;-73
2023/04/08 00:40:33;;;;;;;6.27;5.33;;;8.70;1.00;;;;;;5009058;28;20187;-73
2023/04/08 00:42:58;;;;;;;8.10;5.77;;;9.40;1.00;;;;;;5009927;28;20453;-73
2023/04/08 00:45:24;;;;;;;8.60;5.87;;;9.30;1.00;;;;;;5008267;28;20444;-73
2023/04/08 00:47:51;;;;;;;8.53;6.50;;;9.30;1.00;;;;;;5006976;28;20198;-72
2023/04/08 00:50:17;;;;;;;7.97;6.07;;;9.30;1.00;;;;;;5006662;28;20178;-73
2023/04/08 00:52:44;;;;;;;9.60;6.40;;;9.30;1.00;;;;;;5004927;28;20464;-73
2023/04/08 00:55:09;;;;;;;10.27;6.10;;;9.30;1.00;;;;;;5009483;28;20441;-73
2023/04/08 00:57:35;;;;;;;7.13;5.47;;;9.30;1.00;;;;;;5007382;28;20540;-73
2023/04/08 01:00:04;;;;;;;10.70;6.13;;;9.40;1.00;;;;;;5008306;28;20186;-73
2023/04/08 01:02:42;;;;;;;6.83;5.23;;;9.50;1.00;;;;;;5008457;28;20221;-73
2023/04/08 01:05:49;;;;;;;6.80;5.30;;;9.30;1.00;;;;;;5008120;28;20804;-73
2023/04/08 01:08:16;;;;;;;5.63;4.80;;;9.30;1.00;;;;;;5004479;28;20475;-73
2023/04/08 01:10:47;;;;;;;7.40;5.20;;;9.40;1.00;;;;;;5009087;28;20460;-73
2023/04/08 01:13:16;;;;;;;8.53;5.20;;;9.30;1.00;;;;;;4997360;28;20442;-74
2023/04/08 01:15:44;;;;;;;7.80;5.83;;;9.30;1.00;;;;;;5006300;28;20437;-73
2023/04/08 01:18:12;;;;;;;7.90;5.87;;;9.30;1.00;;;;;;5001514;28;20468;-72
2023/04/08 01:20:39;;;;;;;8.40;5.50;;;9.30;1.00;;;;;;5006655;28;20434;-72
2023/04/08 01:23:23;;;;;;;8.50;5.60;;;9.30;1.00;;;;;;5008752;28;20468;-73
2023/04/08 01:25:56;;;;;;;9.13;5.47;;;9.40;1.00;;;;;;5017498;28;21019;-73
2023/04/08 01:28:25;;;;;;;7.03;5.20;;;9.40;1.00;;;;;;5009187;28;20441;-72
2023/04/08 01:30:54;;;;;;;7.23;5.27;;;9.40;1.00;;;;;;5007780;28;20469;-73
2023/04/08 01:33:21;;;;;;;8.60;5.90;;;9.50;1.00;;;;;;5007597;28;20561;-72
2023/04/08 01:35:47;;;;;;;8.07;5.67;;;9.50;1.00;;;;;;5001124;28;20422;-74
2023/04/08 01:38:18;;;;;;;11.10;6.10;;;9.50;1.00;;;;;;5006282;28;20503;-73
2023/04/08 01:40:50;;;;;;;7.33;5.60;;;9.40;1.00;;;;;;5020629;28;20778;-73
2023/04/08 01:43:17;;;;;;;6.80;4.97;;;9.40;1.00;;;;;;5005743;28;20441;-73
2023/04/08 01:45:45;;;;;;;7.40;5.73;;;9.40;1.00;;;;;;5009032;28;20421;-74
2023/04/08 01:48:13;;;;;;;8.10;5.53;;;9.40;1.00;;;;;;5004728;28;20461;-73
2023/04/08 01:50:41;;;;;;;7.80;5.60;;;9.40;1.00;;;;;;5005938;28;20433;-73
2023/04/08 01:53:09;;;;;;;8.43;5.60;;;9.40;1.00;;;;;;5007593;28;20499;-73
2023/04/08 01:55:40;;;;;;;8.97;5.50;;;9.40;1.00;;;;;;5008789;28;20425;-73
2023/04/08 01:58:07;;;;;;;9.50;6.10;;;9.30;1.00;;;;;;5007618;28;20464;-73
2023/04/08 02:00:34;;;;;;;8.47;5.40;;;9.30;1.00;;;;;;5007531;28;20437;-73
2023/04/08 02:03:01;;;;;;;7.43;5.37;;;9.40;1.00;;;;;;5007263;28;20992;-73
2023/04/08 02:05:27;;;;;;;8.37;5.73;;;9.40;1.00;;;;;;5006151;28;20477;-73
2023/04/08 02:07:53;;;;;;;7.67;5.20;;;9.40;1.00;;;;;;5009267;28;20485;-73
2023/04/08 02:10:19;;;;;;;7.83;5.83;;;9.40;1.00;;;;;;5008362;28;20213;-74
2023/04/08 02:12:45;;;;;;;6.53;5.20;;;9.40;1.00;;;;;;5007614;28;20213;-73
2023/04/08 02:15:12;;;;;;;6.33;5.10;;;9.50;1.00;;;;;;5008043;28;20637;-74
2023/04/08 02:17:49;;;;;;;6.87;5.90;;;9.40;1.00;;;;;;5006606;28;21085;-73
2023/04/08 02:20:42;;;;;;;6.80;5.40;;;9.30;1.00;;;;;;5007160;28;20931;-74
2023/04/08 02:23:13;;;;;;;7.83;5.67;;;9.20;1.00;;;;;;5005563;28;20532;-74
2023/04/08 02:25:43;;;;;;;5.93;4.97;;;9.40;1.00;;;;;;5006803;28;20444;-73
2023/04/08 02:28:10;;;;;;;6.70;5.33;;;9.40;1.00;;;;;;5008252;28;20508;-73
2023/04/08 02:30:46;;;;;;;6.00;5.27;;;9.50;1.00;;;;;;5007449;28;20464;-74
2023/04/08 02:33:13;;;;;;;7.53;5.17;;;9.60;1.00;;;;;;5007495;28;20472;-74
2023/04/08 02:35:40;;;;;;;8.03;6.13;;;9.60;1.00;;;;;;5008034;28;20792;-74
2023/04/08 02:38:05;;;;;;;6.80;4.73;;;9.60;1.00;;;;;;5007511;28;20492;-73
2023/04/08 02:40:32;;;;;;;7.37;5.50;;;9.50;1.00;;;;;;5006080;28;20469;-74
2023/04/08 02:42:59;;;;;;;6.63;5.20;;;9.60;1.00;;;;;;5007669;28;20201;-73
2023/04/08 02:45:28;;;;;;;7.67;5.60;;;9.50;1.00;;;;;;5007445;28;20978;-73
2023/04/08 02:47:54;;;;;;;6.37;5.20;;;9.50;1.00;;;;;;5004534;28;20461;-73
2023/04/08 02:50:20;;;;;;;9.80;5.00;;;9.50;1.00;;;;;;5006524;28;20803;-73
2023/04/08 02:52:45;;;;;;;7.97;5.70;;;9.40;1.00;;;;;;4999278;28;20221;-73
2023/04/08 02:55:11;;;;;;;6.60;5.03;;;9.30;1.00;;;;;;5007307;28;20190;-74
2023/04/08 02:57:39;;;;;;;8.00;6.00;;;9.20;1.00;;;;;;5007743;28;20558;-73
2023/04/08 03:00:06;;;;;;;6.70;5.47;;;9.10;1.00;;;;;;5007481;28;20193;-74
2023/04/08 03:02:31;;;;;;;7.83;5.50;;;9.00;1.00;;;;;;5005939;28;20437;-74
2023/04/08 03:04:57;;;;;;;6.20;4.70;;;9.10;1.00;;;;;;5007422;28;20797;-74
2023/04/08 03:07:23;;;;;;;6.00;4.80;;;9.00;1.00;;;;;;5007930;28;20233;-74
2023/04/08 03:09:48;;;;;;;7.30;5.13;;;9.00;1.00;;;;;;5006798;28;20193;-74
2023/04/08 03:12:14;;;;;;;6.10;4.90;;;8.90;1.00;;;;;;5007030;28;20232;-74
2023/04/08 03:14:40;;;;;;;6.93;5.00;;;8.90;1.00;;;;;;5010117;28;20273;-74
2023/04/08 03:17:05;;;;;;;7.73;5.10;;;8.80;1.00;;;;;;5011767;28;20186;-73
2023/04/08 03:19:31;;;;;;;5.07;4.30;;;8.80;1.00;;;;;;5008682;28;20517;-73
2023/04/08 03:21:56;;;;;;;7.00;4.40;;;8.80;1.00;;;;;;5010197;28;20187;-74
2023/04/08 03:24:22;;;;;;;6.00;4.27;;;8.70;1.00;;;;;;5009275;28;20210;-74
2023/04/08 03:26:47;;;;;;;5.30;4.20;;;8.60;1.00;;;;;;5011721;28;20193;-74
2023/04/08 03:29:13;;;;;;;5.97;4.37;;;8.40;1.00;;;;;;5010968;28;20578;-73
2023/04/08 03:31:38;;;;;;;5.90;4.63;;;8.30;1.00;;;;;;5010166;28;20208;-74
2023/04/08 03:34:04;;;;;;;7.10;5.10;;;8.10;1.00;;;;;;5027188;28;20278;-73
2023/04/08 03:36:30;;;;;;;6.20;4.40;;;8.00;1.00;;;;;;5011534;28;20272;-74
2023/04/08 03:38:55;;;;;;;7.80;4.83;;;7.90;1.00;;;;;;5010562;28;20691;-74
2023/04/08 03:41:21;;;;;;;6.47;4.80;;;7.80;1.00;;;;;;5005482;28;20696;-74
2023/04/08 03:43:46;;;;;;;6.80;4.47;;;7.70;1.00;;;;;;5007618;28;20183;-73
2023/04/08 03:46:12;;;;;;;6.33;4.37;;;7.70;1.00;;;;;;5011046;28;20193;-74
2023/04/08 03:48:37;;;;;;;6.67;4.77;;;7.60;1.00;;;;;;5011104;28;20669;-73
2023/04/08 03:51:03;;;;;;;6.13;4.53;;;7.60;1.00;;;;;;5009285;28;20228;-72
2023/04/08 03:53:29;;;;;;;8.80;5.20;;;7.60;1.00;;;;;;5001894;28;20281;-74
2023/04/08 03:55:56;;;;;;;6.50;5.50;;;7.50;1.00;;;;;;5010536;28;20668;-73
2023/04/08 03:58:21;;;;;;;8.23;5.50;;;7.40;1.00;;;;;;5009368;28;20500;-74
2023/04/08 04:00:47;;;;;;;7.40;5.37;;;7.40;1.00;;;;;;5009504;28;20461;-73
2023/04/08 04:03:13;;;;;;;6.87;5.30;;;7.40;1.00;;;;;;5010382;28;20186;-74
2023/04/08 04:05:39;;;;;;;8.13;5.10;;;7.40;1.00;;;;;;5011158;28;20241;-74
2023/04/08 04:08:05;;;;;;;6.90;5.30;;;7.40;1.00;;;;;;5008727;28;20465;-74
2023/04/08 04:10:31;;;;;;;6.30;5.30;;;7.30;1.00;;;;;;5008255;28;20548;-73
2023/04/08 04:12:56;;;;;;;6.83;5.00;;;6.60;1.00;;;;;;5009252;28;20543;-74
2023/04/08 04:15:22;;;;;;;6.03;5.03;;;7.60;1.00;;;;;;5010279;28;20186;-73
2023/04/08 04:17:51;;;;;;;8.17;5.53;;;7.40;1.00;;;;;;5010740;28;20202;-74
2023/04/08 04:20:17;;;;;;;6.03;4.80;;;7.50;1.00;;;;;;5006019;28;20186;-73
2023/04/08 04:22:43;;;;;;;6.73;4.80;;;7.60;1.00;;;;;;5005072;28;20503;-73
2023/04/08 04:25:09;;;;;;;5.50;4.63;;;7.60;1.00;;;;;;5010586;28;20437;-73
2023/04/08 04:27:35;;;;;;;6.37;5.10;;;7.70;1.00;;;;;;5009965;28;20472;-73
2023/04/08 04:30:01;;;;;;;6.63;5.10;;;7.90;1.00;;;;;;5009860;28;20453;-74
2023/04/08 04:32:27;;;;;;;6.60;4.93;;;7.80;1.00;;;;;;5008896;28;20226;-73
2023/04/08 04:34:53;;;;;;;7.17;4.70;;;7.90;1.00;;;;;;5009259;28;20434;-73
2023/04/08 04:37:19;;;;;;;5.80;4.30;;;7.90;1.00;;;;;;5006574;28;20774;-73
2023/04/08 04:39:44;;;;;;;7.00;4.90;;;7.80;1.00;;;;;;5008453;28;20214;-73
2023/04/08 04:42:10;;;;;;;5.50;4.07;;;7.90;1.00;;;;;;5008704;28;20772;-73
2023/04/08 04:44:36;;;;;;;8.37;4.30;;;8.00;1.00;;;;;;5009263;28;20186;-73
2023/04/08 04:47:01;;;;;;;5.70;4.37;;;8.00;1.00;;;;;;5009995;28;20198;-74
2023/04/08 04:49:27;;;;;;;7.27;4.53;;;8.00;1.00;;;;;;5008466;28;20210;-73
2023/04/08 04:51:52;;;;;;;9.00;5.37;;;8.20;1.00;;;;;;5007449;28;20206;-73
2023/04/08 04:54:18;;;;;;;6.33;4.57;;;8.10;1.00;;;;;;5009574;28;20190;-74
2023/04/08 04:56:44;;;;;;;8.70;5.40;;;8.00;1.00;;;;;;5009938;28;20193;-73
2023/04/08 04:59:09;;;;;;;8.10;5.07;;;8.30;1.00;;;;;;5008629;28;20230;-74
2023/04/08 05:01:35;;;;;;;6.73;4.80;;;8.10;1.00;;;;;;5008706;28;20281;-74
2023/04/08 05:04:01;;;;;;;7.03;5.10;;;8.30;1.00;;;;;;5008250;28;20191;-73
2023/04/08 05:06:26;;;;;;;7.43;5.53;;;8.30;1.00;;;;;;5009882;28;20209;-74
2023/04/08 05:08:52;;;;;;;10.03;6.03;;;8.30;1.00;;;;;;5007389;28;20713;-74
2023/04/08 05:11:20;;;;;;;8.47;6.30;;;8.30;1.00;;;;;;5009593;28;20208;-74
2023/04/08 05:13:46;;;;;;;8.73;6.10;;;8.30;1.00;;;;;;5008977;28;20656;-74
2023/04/08 05:16:12;;;;;;;10.20;6.57;;;8.40;1.00;;;;;;5009047;28;20441;-74
2023/04/08 05:18:37;;;;;;;9.03;6.40;;;8.50;1.00;;;;;;5009043;28;20202;-73
2023/04/08 05:21:03;;;;;;;8.67;6.20;;;8.60;1.00;;;;;;5004922;28;20209;-73
2023/04/08 05:23:29;;;;;;;10.13;6.40;;;8.60;1.00;;;;;;5011186;28;20190;-74
2023/04/08 05:25:55;;;;;;;10.60;5.70;;;8.70;1.00;;;;;;5008077;28;21031;-74
2023/04/08 05:28:20;;;;;;;7.90;5.63;;;8.70;1.00;;;;;;5008338;28;20285;-74
2023/04/08 05:30:50;;;;;;;6.50;5.13;;;8.70;1.00;;;;;;5008206;28;20528;-74
2023/04/08 05:33:15;;;;;;;7.53;5.40;;;8.70;1.00;;;;;;5008178;28;20182;-74
2023/04/08 05:35:41;;;;;;;9.80;5.40;;;8.70;1.00;;;;;;5003704;28;20718;-74
2023/04/08 05:38:07;;;;;;;10.60;6.60;;;8.80;1.00;;;;;;5002138;28;20214;-74
2023/04/08 05:40:32;;;;;;;9.50;6.67;;;8.80;1.00;;;;;;5008262;28;20192;-74
2023/04/08 05:42:58;;;;;;;7.60;5.77;;;8.70;1.00;;;;;;5007362;28;20183;-73
2023/04/08 05:45:23;;;;;;;9.57;6.20;;;8.80;1.00;;;;;;5009650;28;20708;-74
2023/04/08 05:47:49;;;;;;;9.73;6.90;;;8.90;1.00;;;;;;5007981;28;20696;-74
2023/04/08 05:50:15;;;;;;;8.97;7.10;;;9.00;1.00;;;;;;5007151;28;20186;-74
2023/04/08 05:52:43;;;;;;;8.67;6.30;;;9.20;1.00;;;;;;5003850;28;20201;-73
2023/04/08 05:55:09;;;;;;;11.70;7.27;;;9.00;1.00;;;;;;5008287;28;20433;-74
2023/04/08 05:57:35;;;;;;;11.37;7.03;;;9.20;1.00;;;;;;5009490;28;20495;-74
2023/04/08 06:00:01;;;;;;;8.20;6.30;;;9.20;1.00;;;;;;5014836;28;20960;-72
2023/04/08 06:02:26;;;;;;;9.40;6.60;;;9.30;1.00;;;;;;5009007;28;20186;-73
2023/04/08 06:04:52;;;;;;;16.83;11.00;;;9.40;1.00;;;;;;5008426;28;20697;-73
2023/04/08 06:07:17;;;;;;;16.73;10.47;;;9.50;1.00;;;;;;5008740;28;20183;-73
2023/04/08 06:09:43;;;;;;;15.20;10.60;;;11.20;1.00;;;;;;5007228;28;20260;-73
2023/04/08 06:12:09;;;;;;;14.97;9.30;;;9.50;1.00;;;;;;5008506;28;20215;-73
2023/04/08 06:14:34;;;;;;;14.50;10.00;;;9.60;1.00;;;;;;5007688;28;20657;-71
2023/04/08 06:17:00;;;;;;;14.27;9.57;;;10.30;1.00;;;;;;5008171;28;20186;-73
2023/04/08 06:19:26;;;;;;;14.60;9.80;;;10.20;1.00;;;;;;5021597;28;20628;-73
2023/04/08 06:21:51;;;;;;;12.30;9.03;;;10.50;1.00;;;;;;5006829;28;20237;-73
2023/04/08 06:24:17;;;;;;;13.10;8.80;;;11.30;1.00;;;;;;5008881;28;20222;-73
2023/04/08 06:26:42;;;;;;;13.67;9.63;;;10.90;1.00;;;;;;5004806;28;20241;-73
2023/04/08 06:29:08;;;;;;;14.43;9.80;;;10.90;1.00;;;;;;5008563;28;20264;-73
2023/04/08 06:31:33;;;;;;;11.10;8.80;;;11.40;1.00;;;;;;5002740;28;20215;-73
2023/04/08 06:33:59;;;;;;;12.00;9.13;;;11.10;1.00;;;;;;5003644;28;20182;-73
2023/04/08 06:36:25;;;;;;;12.77;9.10;;;11.30;1.00;;;;;;5006035;28;20190;-72
2023/04/08 06:38:50;;;;;;;11.87;9.20;;;11.20;1.00;;;;;;5007080;28;20786;-73
2023/04/08 06:41:16;;;;;;;13.03;8.90;;;11.20;1.00;;;;;;5007485;28;20190;-72
2023/04/08 06:43:41;;;;;;;13.20;9.20;;;11.30;1.00;;;;;;5003833;28;20637;-73
2023/04/08 06:46:07;;;;;;;11.27;8.77;;;11.20;1.00;;;;;;5005986;28;20213;-72
2023/04/08 06:48:33;;;;;;;12.23;9.15;;;11.30;1.00;;;;;;5007824;28;20453;-72
2023/04/08 06:51:00;;;;;;;11.13;8.97;;;11.60;1.00;;;;;;5004486;28;20574;-72
2023/04/08 06:53:28;;;;;;;11.40;8.90;;;11.90;1.00;;;;;;5008022;28;20186;-72
2023/04/08 06:55:54;;;;;;;11.47;9.37;;;12.00;1.00;;;;;;5008851;28;20464;-72
2023/04/08 06:58:19;;;;;;;11.67;8.93;;;12.50;1.00;;;;;;5007792;28;20704;-72
2023/04/08 07:00:45;;;;;;;10.47;8.77;;;12.20;1.00;;;;;;5008433;28;20245;-72
2023/04/08 07:03:11;;;;;;;10.40;8.37;;;12.10;1.00;;;;;;5007207;28;20233;-73
2023/04/08 07:05:37;;;;;;;12.33;8.90;;;12.20;1.00;;;;;;5008548;28;20429;-72
2023/04/08 07:08:03;;;;;;;8.73;7.43;;;10.80;1.00;;;;;;5006722;28;20241;-72
2023/04/08 07:10:29;;;;;;;9.87;8.37;;;12.30;1.00;;;;;;5006274;28;20182;-73
2023/04/08 07:12:55;;;;;;;9.40;7.70;;;12.50;1.00;;;;;;5004332;28;20468;-72
2023/04/08 07:15:21;;;;;;;11.67;8.40;;;12.90;1.00;;;;;;5005716;28;20210;-72
2023/04/08 07:17:46;;;;;;;11.50;8.70;;;12.80;1.00;;;;;;5007388;28;20483;-72
2023/04/08 07:20:12;;;;;;;12.43;8.40;;;12.70;1.00;;;;;;5007059;28;20190;-72
2023/04/08 07:22:39;;;;;;;12.00;8.70;;;12.70;1.00;;;;;;5006588;28;20182;-73
2023/04/08 07:28:27;;;;;;;9.83;8.10;;;12.80;1.00;;;;;;5005161;28;20479;-71
2023/04/08 07:30:53;;;;;;;9.50;7.90;;;12.90;1.00;;;;;;5004674;28;20460;-73
2023/04/08 07:33:19;;;;;;;10.60;8.90;;;13.00;1.00;;;;;;5007693;28;20437;-72
2023/04/08 07:35:44;;;;;;;9.43;8.10;;;13.50;1.00;;;;;;5006964;28;20589;-72
2023/04/08 07:38:12;;;;;;;11.20;9.00;;;13.00;1.00;;;;;;5004998;28;20736;-76
2023/04/08 07:40:37;;;;;;;12.23;8.90;;;13.00;1.00;;;;;;5000564;28;20177;-73
2023/04/08 07:43:03;;;;;;;10.77;8.90;;;13.20;1.00;;;;;;5001827;28;20800;-73
2023/04/08 07:45:29;;;;;;;11.10;8.97;;;13.30;1.00;;;;;;5008671;28;20643;-73
2023/04/08 07:47:54;;;;;;;9.97;7.67;;;13.30;1.00;;;;;;5006312;28;20202;-73
2023/04/08 07:50:20;;;;;;;13.60;8.90;;;13.40;1.00;;;;;;5008287;28;20680;-73
2023/04/08 07:52:46;;;;;;;10.73;8.80;;;13.40;1.00;;;;;;5006656;28;20225;-74
2023/04/08 07:55:11;;;;;;;13.10;8.93;;;13.20;1.00;;;;;;5008542;28;20269;-74
2023/04/08 07:57:37;;;;;;;12.80;9.27;;;13.20;1.00;;;;;;5011466;28;20202;-74
2023/04/08 08:00:03;;;;;;;13.40;9.50;;;13.30;1.00;;;;;;5011033;28;20186;-74
2023/04/08 08:02:29;;;;;;;12.07;9.33;;;13.20;1.00;;;;;;5011994;28;20222;-74
2023/04/08 08:04:55;;;;;;;11.20;9.53;;;13.30;1.00;;;;;;5011579;28;20480;-74
2023/04/08 08:07:20;;;;;;;11.30;8.97;;;13.70;1.00;;;;;;5011956;28;20214;-74
2023/04/08 08:09:46;;;;;;;10.20;8.57;;;13.70;1.00;;;;;;5012081;28;20201;-74
2023/04/08 08:12:11;;;;;;;12.50;9.70;;;14.00;1.00;;;;;;5011606;28;20206;-75
2023/04/08 08:14:37;;;;;;;12.07;8.90;;;14.10;1.00;;;;;;5011932;28;20596;-74
2023/04/08 08:17:03;;;;;;;12.33;9.30;;;16.20;1.00;;;;;;5011765;28;22579;-74
2023/04/08 08:19:29;;;;;;;11.93;9.80;;;16.20;1.00;;;;;;5011654;28;20225;-75
2023/04/08 08:21:55;;;;;;;15.50;12.37;;;17.60;1.00;;;;;;5011380;28;20776;-75
2023/04/08 08:24:21;;;;;;;14.30;11.80;;;18.50;1.00;;;;;;5011812;28;20665;-74
2023/04/08 08:26:48;;;;;;;14.90;12.10;;;18.80;1.00;;;;;;5011089;28;20583;-74
2023/04/08 08:29:13;;;;;;;13.23;11.33;;;19.40;1.00;;;;;;5011567;28;20719;-74
2023/04/08 08:31:39;;;;;;;12.57;10.70;;;20.40;1.00;;;;;;5011574;28;20456;-76
2023/04/08 08:34:04;;;;;;;12.77;11.40;;;21.50;1.00;;;;;;5011130;28;20628;-73
2023/04/08 08:36:30;;;;;;;12.70;11.10;;;22.30;1.00;;;;;;5011431;28;20185;-74
2023/04/08 08:38:56;;;;;;;13.23;11.23;;;22.90;1.00;;;;;;5011205;28;20201;-76
2023/04/08 08:41:21;;;;;;;13.50;11.67;;;23.10;1.00;;;;;;5011254;28;20217;-76
2023/04/08 08:43:47;;;;;;;12.23;10.80;;;22.40;1.00;;;;;;5010959;28;20189;-75
2023/04/08 08:46:16;;;;;;;13.77;11.60;;;22.10;1.00;;;;;;5011872;28;20270;-76
2023/04/08 08:48:41;;;;;;;13.73;11.70;;;22.80;1.00;;;;;;5010740;28;20561;-75
2023/04/08 08:51:08;;;;;;;12.53;11.10;;;23.10;1.00;;;;;;5010722;28;20468;-76
2023/04/08 08:53:34;;;;;;;14.30;11.20;;;23.10;1.00;;;;;;5009709;28;20734;-75
2023/04/08 08:55:59;;;;;;;12.83;11.50;;;22.20;1.00;;;;;;5011170;28;20520;-75
2023/04/08 08:58:26;;;;;;;13.60;11.07;;;21.20;1.00;;;;;;5010722;28;20220;-73
2023/04/08 09:00:52;;;;;;;16.30;12.10;;;20.50;1.00;;;;;;5010802;28;20260;-75
2023/04/08 09:03:28;;;;;;;13.10;11.30;;;19.70;1.00;;;;;;5011213;28;20875;-75
2023/04/08 09:05:59;;;;;;;14.37;11.20;;;19.20;1.00;;;;;;5010799;28;20369;-74
2023/04/08 09:08:33;;;;;;;13.30;11.27;;;18.70;1.00;;;;;;5010004;28;20454;-74
2023/04/08 09:11:18;;;;;;;13.40;11.60;;;18.60;1.00;;;;;;5010628;28;20852;-75
2023/04/08 09:13:45;;;;;;;13.17;10.93;;;19.10;1.00;;;;;;5010746;28;20434;-75
2023/04/08 09:16:18;;;;;;;14.60;11.30;;;19.90;1.00;;;;;;5010462;28;20421;-75
2023/04/08 09:18:46;;;;;;;14.20;11.40;;;20.10;1.00;;;;;;5010746;28;20453;-75
2023/04/08 09:21:13;;;;;;;14.97;11.70;;;19.70;1.00;;;;;;5010219;28;20567;-75
2023/04/08 09:23:47;;;;;;;14.43;11.63;;;19.70;1.00;;;;;;5010299;28;20469;-74
2023/04/08 09:26:21;;;;;;;11.83;10.53;;;19.60;1.00;;;;;;5007596;28;20433;-75
2023/04/08 09:29:07;;;;;;;13.50;11.07;;;19.60;1.00;;;;;;5010176;28;20573;-74
2023/04/08 09:31:40;;;;;;;12.63;11.20;;;19.70;1.00;;;;;;5010278;28;20457;-75
2023/04/08 09:34:18;;;;;;;18.17;15.50;;;19.20;1.00;;;;;;5010203;28;20425;-74
2023/04/08 09:36:44;;;;;;;12.60;10.93;;;18.90;1.00;;;;;;5010366;28;20425;-75
2023/04/08 09:39:10;;;;;;;13.77;11.50;;;18.70;1.00;;;;;;5009736;28;20450;-75
2023/04/08 09:41:37;;;;;;;17.73;12.23;;;18.60;1.00;;;;;;5010130;28;20430;-74
2023/04/08 09:44:05;;;;;;;15.40;11.17;;;18.90;1.00;;;;;;5010052;28;20317;-75
2023/04/08 09:46:42;;;;;;;16.37;11.80;;;18.90;1.00;;;;;;5010119;28;20489;-75
2023/04/08 09:49:37;;;;;;;14.90;12.43;;;18.80;1.00;;;;;;5007610;28;20820;-75
2023/04/08 09:52:23;;;;;;;15.20;11.90;;;18.60;1.00;;;;;;5007572;28;20988;-74
2023/04/08 09:55:13;;;;;;;15.80;11.37;;;19.60;1.00;;;;;;5009194;28;20488;-73
2023/04/08 09:57:40;;;;;;;13.43;11.00;;;19.20;1.00;;;;;;5009919;28;20457;-74
2023/04/08 10:00:06;;;;;;;15.03;11.70;;;19.10;1.00;;;;;;5009437;28;20421;-74
2023/04/08 10:02:43;;;;;;;13.13;10.93;;;18.60;1.00;;;;;;5009851;28;20433;-73
2023/04/08 10:05:12;;;;;;;15.63;11.70;;;18.00;1.00;;;;;;5009474;28;20452;-73
2023/04/08 10:07:38;;;;;;;17.47;12.37;;;18.00;1.00;;;;;;5009634;28;21026;-73
2023/04/08 10:10:05;;;;;;;14.17;11.43;;;17.80;1.00;;;;;;5009294;28;20440;-73
2023/04/08 10:12:32;;;;;;;13.93;11.57;;;17.80;1.00;;;;;;5009423;28;20993;-73
2023/04/08 10:15:25;;;;;;;16.60;11.80;;;18.00;1.00;;;;;;5009139;28;20461;-73
2023/04/08 10:18:19;;;;;;;14.70;12.20;;;17.70;1.00;;;;;;5009253;28;20967;-73
2023/04/08 10:20:46;;;;;;;17.07;11.00;;;17.60;1.00;;;;;;4997333;28;20453;-73
2023/04/08 10:23:13;;;;;;;13.87;11.60;;;17.80;1.00;;;;;;5009149;28;20424;-73
2023/04/08 10:25:40;;;;;;;13.03;11.00;;;17.20;1.00;;;;;;5009359;28;20456;-73
2023/04/08 10:28:17;;;;;;;17.63;11.13;;;16.90;1.00;;;;;;5009252;28;20456;-73
2023/04/08 10:30:54;;;;;;;12.83;11.17;;;16.70;1.00;;;;;;5009271;28;20440;-73
2023/04/08 10:33:35;;;;;;;14.17;11.30;;;16.60;1.00;;;;;;5001862;28;20425;-73
2023/04/08 10:36:11;;;;;;;12.73;10.00;;;16.90;1.00;;;;;;5009093;28;20955;-73
2023/04/08 10:38:37;;;;;;;16.43;10.47;;;16.20;1.00;;;;;;5009343;28;20441;-73
2023/04/08 10:41:03;;;;;;;13.20;10.40;;;16.20;1.00;;;;;;5008730;28;20791;-73
2023/04/08 10:43:35;;;;;;;15.50;11.30;;;16.10;1.00;;;;;;5009290;28;20509;-72
2023/04/08 10:46:02;;;;;;;13.07;9.37;;;16.40;1.00;;;;;;5008551;28;20186;-73
2023/04/08 10:48:28;;;;;;;14.27;9.37;;;15.90;1.00;;;;;;5009124;28;20851;-72
2023/04/08 10:50:55;;;;;;;12.60;10.10;;;15.90;1.00;;;;;;5008765;28;20424;-72
2023/04/08 10:53:32;;;;;;;12.70;10.50;;;15.70;1.00;;;;;;5008942;28;20724;-73
2023/04/08 10:56:05;;;;;;;11.17;8.90;;;15.60;1.00;;;;;;5008516;28;20554;-73
2023/04/08 10:58:31;;;;;;;12.30;9.80;;;15.50;1.00;;;;;;5008889;28;20500;-73
2023/04/08 11:01:04;;;;;;;12.73;9.00;;;15.50;1.00;;;;;;5008712;28;20472;-74
2023/04/08 11:03:32;;;;;;;13.50;10.17;;;15.70;1.00;;;;;;5009120;28;20468;-73
2023/04/08 11:05:59;;;;;;;14.23;9.63;;;15.80;1.00;;;;;;5007947;28;20433;-73
2023/04/08 11:08:28;;;;;;;11.27;9.13;;;15.80;1.00;;;;;;5008832;28;20622;-73
2023/04/08 11:10:54;;;;;;;12.17;10.10;;;15.80;1.00;;;;;;5008358;28;20491;-72
2023/04/08 11:13:21;;;;;;;11.90;9.40;;;15.80;1.00;;;;;;5008845;28;20430;-74
2023/04/08 11:15:47;;;;;;;12.93;9.50;;;15.80;1.00;;;;;;5006031;28;20660;-73
2023/04/08 11:18:13;;;;;;;14.60;9.53;;;15.80;1.00;;;;;;5007551;28;20450;-73
2023/04/08 11:20:39;;;;;;;13.33;10.47;;;15.80;1.00;;;;;;5008652;28;20580;-73
2023/04/08 11:23:13;;;;;;;13.17;10.47;;;15.80;1.00;;;;;;5008214;28;20430;-73
2023/04/08 11:25:44;;;;;;;12.83;10.00;;;15.90;1.00;;;;;;5009083;28;20189;-73
2023/04/08 11:28:10;;;;;;;11.80;9.67;;;15.90;1.00;;;;;;5008030;28;20540;-73
2023/04/08 11:30:41;;;;;;;11.80;10.30;;;16.10;1.00;;;;;;5010050;28;20426;-74
2023/04/08 11:33:06;;;;;;;11.73;9.97;;;15.90;1.00;;;;;;5012095;28;20496;-73
2023/04/08 11:35:32;;;;;;;17.90;11.00;;;16.10;1.00;;;;;;5012774;28;20453;-73
2023/04/08 11:37:58;;;;;;;16.17;11.10;;;16.40;1.00;;;;;;5012226;28;20256;-73
2023/04/08 11:40:25;;;;;;;13.90;11.00;;;16.60;1.00;;;;;;5012167;28;20425;-73
2023/04/08 11:42:51;;;;;;;13.73;10.60;;;16.70;1.00;;;;;;5012546;28;20564;-73
2023/04/08 11:45:22;;;;;;;13.30;10.87;;;16.80;1.00;;;;;;5012099;28;20500;-73
2023/04/08 11:47:48;;;;;;;12.80;10.20;;;16.70;1.00;;;;;;5010450;28;20459;-73
2023/04/08 11:50:24;;;;;;;13.30;11.03;;;16.60;1.00;;;;;;5011029;28;20437;-73
2023/04/08 11:52:51;;;;;;;13.63;10.30;;;16.70;1.00;;;;;;5011974;28;20210;-74
2023/04/08 11:55:25;;;;;;;18.67;12.60;;;16.80;1.00;;;;;;5011921;28;20520;-73
2023/04/08 11:57:51;;;;;;;16.47;11.50;;;17.00;1.00;;;;;;5012186;28;20456;-73
2023/04/08 12:00:17;;;;;;;14.73;12.27;;;17.10;1.00;;;;;;5011768;28;20483;-73
2023/04/08 12:02:43;;;;;;;17.27;11.10;;;17.30;1.00;;;;;;5011571;28;20443;-73
2023/04/08 12:05:09;;;;;;;12.03;10.40;;;17.40;1.00;;;;;;5013167;28;20429;-73
2023/04/08 12:07:35;;;;;;;13.83;11.60;;;17.60;1.00;;;;;;5011628;28;20209;-73
2023/04/08 12:10:01;;;;;;;14.40;10.73;;;17.60;1.00;;;;;;5011026;28;20193;-74
2023/04/08 12:12:26;;;;;;;13.57;10.93;;;17.70;1.00;;;;;;5011568;28;20265;-73
2023/04/08 12:14:52;;;;;;;14.60;11.13;;;18.00;1.00;;;;;;5011673;28;20538;-73
2023/04/08 12:17:18;;;;;;;12.67;9.93;;;18.00;1.00;;;;;;5011268;28;20182;-73
2023/04/08 12:19:43;;;;;;;11.80;9.87;;;18.00;1.00;;;;;;5011482;28;20425;-73
2023/04/08 12:22:09;;;;;;;13.87;10.20;;;18.10;1.00;;;;;;5008134;28;20187;-73
2023/04/08 12:24:34;;;;;;;12.50;8.90;;;18.10;1.00;;;;;;5011802;28;20182;-73
2023/04/08 12:27:02;;;;;;;15.60;11.80;;;18.10;1.00;;;;;;5011298;28;20194;-73
2023/04/08 12:29:28;;;;;;;15.57;12.03;;;18.50;1.00;;;;;;5011218;28;20206;-73
2023/04/08 12:31:53;;;;;;;13.47;9.20;;;18.80;1.00;;;;;;5011358;28;20461;-73
2023/04/08 12:34:19;;;;;;;10.23;8.17;;;18.70;1.00;;;;;;5011129;28;20955;-73
2023/04/08 12:36:46;;;;;;;11.17;9.20;;;18.80;1.00;;;;;;5011575;28;20179;-73
2023/04/08 12:39:11;;;;;;;9.63;7.93;;;19.00;1.00;;;;;;5011055;28;20206;-73
2023/04/08 12:41:37;;;;;;;11.17;8.90;;;19.10;1.00;;;;;;5010416;28;21100;-73
2023/04/08 12:44:03;;;;;;;12.10;8.40;;;19.10;1.00;;;;;;5010437;28;20273;-73
2023/04/08 12:46:28;;;;;;;10.00;8.37;;;19.20;1.00;;;;;;5012593;28;20245;-73
2023/04/08 12:48:54;;;;;;;13.73;8.33;;;19.00;1.00;;;;;;5011289;28;20206;-73
2023/04/08 12:51:19;;;;;;;10.83;8.80;;;18.70;1.00;;;;;;5010507;28;20213;-73
2023/04/08 12:53:45;;;;;;;11.70;9.13;;;18.90;1.00;;;;;;5011202;28;20534;-73
2023/04/08 12:56:11;;;;;;;11.33;9.73;;;18.60;1.00;;;;;;5010712;28;20183;-73
2023/04/08 12:58:36;;;;;;;11.13;8.83;;;18.30;1.00;;;;;;5010570;28;20212;-73